Time;durP1;ratioP1;P1;durP2;ratioP2;P2;SDS_P1;SDS_P2;PMS_P1;PMS_P2;Temp;Humidity;BMP_temperature;BMP_pressure;BME280_temperature;BME280_humidity;BME280_pressure;Samples;Min_cycle;Max_cycle;Signal;HPM_P1;HPM_P2
2021/03/22 00:00:23;;;;;;;15.73;3.40;;;;;;;;;;4996685;28;20278;-78
2021/03/22 00:02:49;;;;;;;17.37;3.50;;;;;;;;;;4997110;28;20218;-78
2021/03/22 00:05:16;;;;;;;19.43;3.47;;;;;;;;;;4997690;28;20263;-78
2021/03/22 00:07:42;;;;;;;19.57;3.10;;;;;;;;;;5013572;28;20241;-79
2021/03/22 00:10:08;;;;;;;18.17;3.53;;;;;;;;;;4997410;28;20182;-79
2021/03/22 00:12:34;;;;;;;15.50;3.27;;;;;;;;;;5013681;28;20635;-79
2021/03/22 00:15:00;;;;;;;18.73;4.00;;;;;;;;;;4996722;28;20179;-79
2021/03/22 00:17:26;;;;;;;18.03;3.50;;;;;;;;;;4996852;28;20202;-79
2021/03/22 00:19:52;;;;;;;22.10;4.10;;;;;;;;;;4997398;28;20270;-79
2021/03/22 00:22:18;;;;;;;19.33;3.90;;;;;;;;;;4997259;28;20186;-80
2021/03/22 00:24:44;;;;;;;22.70;3.63;;;;;;;;;;5012999;28;20676;-78
2021/03/22 00:27:10;;;;;;;26.83;3.70;;;;;;;;;;5013718;28;20198;-79
2021/03/22 00:29:36;;;;;;;18.60;3.37;;;;;;;;;;4997585;28;20186;-78
2021/03/22 00:32:02;;;;;;;15.07;3.40;;;;;;;;;;4997277;28;20194;-80
2021/03/22 00:34:29;;;;;;;15.33;3.10;;;;;;;;;;4996759;28;20647;-79
2021/03/22 00:36:55;;;;;;;19.27;4.10;;;;;;;;;;4997909;28;20243;-80
2021/03/22 00:39:21;;;;;;;19.43;3.73;;;;;;;;;;4996734;28;20639;-77
2021/03/22 00:41:47;;;;;;;20.87;3.80;;;;;;;;;;5011804;28;20262;-77
2021/03/22 00:44:13;;;;;;;16.60;3.20;;;;;;;;;;4994858;28;20298;-78
2021/03/22 00:46:39;;;;;;;25.20;3.90;;;;;;;;;;5011596;28;20241;-77
2021/03/22 00:49:06;;;;;;;18.43;3.47;;;;;;;;;;5011603;28;20524;-77
2021/03/22 00:51:31;;;;;;;20.63;3.90;;;;;;;;;;4995409;28;20244;-78
2021/03/22 00:53:58;;;;;;;20.97;3.60;;;;;;;;;;4995287;28;20636;-78
2021/03/22 00:56:23;;;;;;;20.20;3.73;;;;;;;;;;4995458;28;20187;-77
2021/03/22 00:58:49;;;;;;;21.63;3.70;;;;;;;;;;4994905;28;20282;-78
2021/03/22 01:01:16;;;;;;;16.50;3.17;;;;;;;;;;4995254;28;20658;-78
2021/03/22 01:03:42;;;;;;;17.23;3.77;;;;;;;;;;4994846;28;20215;-77
2021/03/22 01:06:08;;;;;;;17.83;3.50;;;;;;;;;;4995048;28;20652;-76
2021/03/22 01:08:34;;;;;;;22.87;3.67;;;;;;;;;;5051986;23;20233;-78
2021/03/22 01:11:01;;;;;;;18.17;3.30;;;;;;;;;;5053733;28;20166;-79
2021/03/22 01:13:28;;;;;;;15.87;3.53;;;;;;;;;;5037151;28;20182;-79
2021/03/22 01:15:54;;;;;;;27.80;3.80;;;;;;;;;;5054472;28;20187;-78
2021/03/22 01:18:21;;;;;;;19.23;3.40;;;;;;;;;;5049179;28;20205;-78
2021/03/22 01:20:49;;;;;;;22.67;3.60;;;;;;;;;;5054520;28;20555;-78
2021/03/22 01:23:15;;;;;;;20.70;3.40;;;;;;;;;;5035508;28;20317;-79
2021/03/22 01:25:41;;;;;;;28.13;4.07;;;;;;;;;;5051264;28;20655;-78
2021/03/22 01:28:07;;;;;;;23.40;3.90;;;;;;;;;;5050969;28;20194;-78
2021/03/22 01:30:44;;;;;;;17.20;4.00;;;;;;;;;;5051223;28;20255;-78
2021/03/22 01:33:15;;;;;;;17.43;3.27;;;;;;;;;;5034291;28;20185;-78
2021/03/22 01:35:41;;;;;;;19.57;3.63;;;;;;;;;;5034882;28;20704;-78
2021/03/22 01:38:07;;;;;;;19.87;3.93;;;;;;;;;;5051067;28;20195;-78
2021/03/22 01:40:39;;;;;;;22.83;3.93;;;;;;;;;;5034005;28;20239;-78
2021/03/22 01:43:31;;;;;;;19.57;3.50;;;;;;;;;;5051376;28;20221;-78
2021/03/22 01:45:57;;;;;;;17.37;3.13;;;;;;;;;;5056305;28;20198;-78
2021/03/22 01:48:23;;;;;;;19.60;3.20;;;;;;;;;;5043233;28;20198;-77
2021/03/22 01:50:49;;;;;;;16.60;3.17;;;;;;;;;;5059150;28;20205;-78
2021/03/22 01:53:15;;;;;;;20.37;3.40;;;;;;;;;;5053965;28;20307;-79
2021/03/22 01:55:42;;;;;;;16.57;3.43;;;;;;;;;;5040956;28;20186;-79
2021/03/22 01:58:08;;;;;;;20.27;3.60;;;;;;;;;;5034786;28;20292;-79
2021/03/22 02:00:35;;;;;;;17.13;3.80;;;;;;;;;;5034828;28;20185;-79
2021/03/22 02:03:17;;;;;;;20.57;3.53;;;;;;;;;;5051105;28;20204;-79
2021/03/22 02:05:47;;;;;;;19.83;3.43;;;;;;;;;;5047141;28;20185;-79
2021/03/22 02:08:15;;;;;;;15.80;2.83;;;;;;;;;;5053928;28;20302;-79
2021/03/22 02:10:41;;;;;;;15.50;3.00;;;;;;;;;;5053839;28;20177;-79
2021/03/22 02:13:07;;;;;;;18.13;3.60;;;;;;;;;;5071025;28;20204;-79
2021/03/22 02:15:34;;;;;;;17.80;3.03;;;;;;;;;;5070796;28;20263;-79
2021/03/22 02:18:03;;;;;;;21.73;3.63;;;;;;;;;;5054111;28;20680;-79
2021/03/22 02:20:34;;;;;;;22.53;4.03;;;;;;;;;;5070716;28;20593;-79
2021/03/22 02:23:19;;;;;;;16.40;3.63;;;;;;;;;;5072030;28;20571;-79
2021/03/22 02:25:52;;;;;;;18.73;3.40;;;;;;;;;;5074918;28;20259;-79
2021/03/22 02:28:33;;;;;;;17.03;3.77;;;;;;;;;;5057824;28;20559;-79
2021/03/22 02:31:04;;;;;;;14.20;3.33;;;;;;;;;;5075255;28;20178;-78
2021/03/22 02:33:42;;;;;;;19.77;3.77;;;;;;;;;;5074284;28;20589;-78
2021/03/22 02:36:12;;;;;;;19.90;3.53;;;;;;;;;;5073829;28;20177;-78
2021/03/22 02:38:40;;;;;;;11.77;3.00;;;;;;;;;;5075293;28;20201;-78
2021/03/22 02:41:08;;;;;;;17.97;3.90;;;;;;;;;;5058285;28;20192;-78
2021/03/22 02:43:36;;;;;;;14.33;3.40;;;;;;;;;;5058222;28;20212;-78
2021/03/22 02:46:02;;;;;;;19.57;4.20;;;;;;;;;;5074542;28;20182;-78
2021/03/22 02:48:29;;;;;;;13.83;3.20;;;;;;;;;;5074383;28;20204;-78
2021/03/22 02:51:01;;;;;;;14.27;3.67;;;;;;;;;;5057193;28;20179;-78
2021/03/22 02:53:38;;;;;;;18.30;3.53;;;;;;;;;;5057481;28;20188;-78
2021/03/22 02:56:27;;;;;;;15.67;3.80;;;;;;;;;;5074182;28;20253;-78
2021/03/22 02:59:02;;;;;;;18.00;3.90;;;;;;;;;;5037441;28;20214;-78
2021/03/22 03:01:30;;;;;;;17.67;3.83;;;;;;;;;;5056493;28;20227;-78
2021/03/22 03:03:56;;;;;;;10.53;3.30;;;;;;;;;;5055971;28;20236;-78
2021/03/22 03:06:22;;;;;;;17.07;3.73;;;;;;;;;;5056991;28;20208;-78
2021/03/22 03:08:48;;;;;;;14.57;3.60;;;;;;;;;;5056411;28;20219;-78
2021/03/22 03:11:14;;;;;;;16.47;3.97;;;;;;;;;;5056593;28;20174;-78
2021/03/22 03:13:40;;;;;;;15.83;3.80;;;;;;;;;;5055379;28;20650;-78
2021/03/22 03:16:07;;;;;;;16.00;4.33;;;;;;;;;;5073183;28;20181;-78
2021/03/22 03:18:33;;;;;;;19.73;4.50;;;;;;;;;;5056701;28;20644;-78
2021/03/22 03:20:59;;;;;;;14.20;3.90;;;;;;;;;;5056453;28;20224;-78
2021/03/22 03:23:26;;;;;;;18.40;4.03;;;;;;;;;;5056444;28;20213;-78
2021/03/22 03:25:52;;;;;;;20.63;4.27;;;;;;;;;;5056406;28;20211;-78
2021/03/22 03:28:18;;;;;;;14.17;3.73;;;;;;;;;;5073097;28;20682;-78
2021/03/22 03:30:44;;;;;;;25.63;5.13;;;;;;;;;;5056470;28;20181;-78
2021/03/22 03:33:11;;;;;;;15.87;4.50;;;;;;;;;;5056093;28;20184;-78
2021/03/22 03:35:37;;;;;;;14.07;4.30;;;;;;;;;;5055078;28;20207;-78
2021/03/22 03:38:04;;;;;;;16.23;3.90;;;;;;;;;;5056412;28;20208;-78
2021/03/22 03:40:32;;;;;;;15.70;4.47;;;;;;;;;;5056649;28;20629;-79
2021/03/22 03:42:58;;;;;;;18.00;4.47;;;;;;;;;;5056859;28;20204;-79
2021/03/22 03:45:25;;;;;;;16.30;4.00;;;;;;;;;;5057849;28;20182;-78
2021/03/22 03:47:51;;;;;;;21.20;4.70;;;;;;;;;;5056562;28;20203;-78
2021/03/22 03:50:20;;;;;;;14.60;4.03;;;;;;;;;;5056734;28;20184;-78
2021/03/22 03:52:46;;;;;;;15.13;4.43;;;;;;;;;;5056226;28;20181;-78
2021/03/22 03:55:13;;;;;;;17.60;5.00;;;;;;;;;;5055913;28;20177;-78
2021/03/22 03:57:39;;;;;;;21.67;4.87;;;;;;;;;;5072606;28;20198;-78
2021/03/22 04:00:10;;;;;;;14.73;4.77;;;;;;;;;;5072463;28;20272;-78
2021/03/22 04:02:36;;;;;;;13.73;4.47;;;;;;;;;;5072691;28;20180;-78
2021/03/22 04:05:03;;;;;;;15.10;4.50;;;;;;;;;;5072836;28;20174;-78
2021/03/22 04:07:29;;;;;;;20.13;4.83;;;;;;;;;;5056139;28;20273;-78
2021/03/22 04:09:55;;;;;;;21.37;4.77;;;;;;;;;;5055937;28;20180;-78
2021/03/22 04:12:21;;;;;;;19.80;5.30;;;;;;;;;;5055803;28;20175;-78
2021/03/22 04:14:47;;;;;;;14.33;4.97;;;;;;;;;;5055937;28;20196;-78
2021/03/22 04:17:13;;;;;;;22.67;4.90;;;;;;;;;;5056035;28;20204;-78
2021/03/22 04:19:40;;;;;;;19.20;5.33;;;;;;;;;;5056124;28;20322;-78
2021/03/22 04:22:06;;;;;;;18.33;5.43;;;;;;;;;;5055870;28;20177;-78
2021/03/22 04:24:32;;;;;;;17.40;4.63;;;;;;;;;;5055484;28;20587;-78
2021/03/22 04:26:58;;;;;;;19.27;4.90;;;;;;;;;;5072245;28;20260;-78
2021/03/22 04:29:24;;;;;;;20.07;5.10;;;;;;;;;;5055737;28;20733;-78
2021/03/22 04:31:51;;;;;;;22.97;6.07;;;;;;;;;;5073282;28;20212;-78
2021/03/22 04:34:17;;;;;;;20.33;5.30;;;;;;;;;;5056018;28;20242;-79
2021/03/22 04:36:43;;;;;;;21.83;6.03;;;;;;;;;;5055428;28;20181;-78
2021/03/22 04:39:10;;;;;;;26.47;5.77;;;;;;;;;;5072311;28;20181;-78
2021/03/22 04:41:36;;;;;;;19.27;4.97;;;;;;;;;;5055070;28;20191;-78
2021/03/22 04:44:03;;;;;;;25.30;5.77;;;;;;;;;;5052069;28;20665;-78
2021/03/22 04:46:29;;;;;;;23.90;5.30;;;;;;;;;;5035331;28;20252;-78
2021/03/22 04:48:55;;;;;;;18.30;4.50;;;;;;;;;;5035009;28;20198;-78
2021/03/22 04:51:21;;;;;;;19.37;5.63;;;;;;;;;;5035055;28;20325;-78
2021/03/22 04:53:47;;;;;;;18.30;5.27;;;;;;;;;;5035518;28;20220;-79
2021/03/22 04:56:13;;;;;;;17.97;5.87;;;;;;;;;;5052079;28;20190;-78
2021/03/22 04:58:40;;;;;;;22.50;6.07;;;;;;;;;;5035956;28;20205;-78
2021/03/22 05:01:07;;;;;;;22.87;5.83;;;;;;;;;;5035300;28;20184;-78
2021/03/22 05:03:33;;;;;;;21.10;5.60;;;;;;;;;;5051787;28;20200;-78
2021/03/22 05:05:59;;;;;;;17.87;5.90;;;;;;;;;;5051658;28;20251;-78
2021/03/22 05:08:26;;;;;;;19.33;5.83;;;;;;;;;;5051709;28;20297;-78
2021/03/22 05:10:53;;;;;;;17.20;5.30;;;;;;;;;;5035013;28;20177;-79
2021/03/22 05:13:19;;;;;;;18.90;5.90;;;;;;;;;;5034844;28;20634;-78
2021/03/22 05:15:45;;;;;;;18.60;5.83;;;;;;;;;;5034821;28;20570;-79
2021/03/22 05:18:11;;;;;;;19.13;5.93;;;;;;;;;;5051123;28;20200;-79
2021/03/22 05:20:38;;;;;;;20.30;5.77;;;;;;;;;;5051470;28;20178;-80
2021/03/22 05:23:15;;;;;;;24.10;5.80;;;;;;;;;;5033881;28;20217;-79
2021/03/22 05:25:42;;;;;;;17.93;5.07;;;;;;;;;;5033987;28;20181;-79
2021/03/22 05:28:08;;;;;;;18.57;4.70;;;;;;;;;;5051189;28;20204;-80
2021/03/22 05:30:34;;;;;;;19.50;5.73;;;;;;;;;;5034637;28;20553;-79
2021/03/22 05:33:01;;;;;;;20.10;5.83;;;;;;;;;;5050790;28;20170;-79
2021/03/22 05:35:27;;;;;;;16.47;5.27;;;;;;;;;;5034382;28;20188;-80
2021/03/22 05:37:53;;;;;;;21.80;6.50;;;;;;;;;;5050274;28;20569;-79
2021/03/22 05:40:40;;;;;;;22.27;5.57;;;;;;;;;;5034338;28;20209;-79
2021/03/22 05:43:21;;;;;;;19.77;5.10;;;;;;;;;;5050933;28;20306;-79
2021/03/22 05:45:51;;;;;;;20.13;5.57;;;;;;;;;;5034722;28;20174;-80
2021/03/22 05:48:36;;;;;;;19.10;5.87;;;;;;;;;;5047343;28;20263;-80
2021/03/22 05:51:02;;;;;;;15.53;5.30;;;;;;;;;;5078234;28;20549;-79
2021/03/22 05:53:28;;;;;;;15.90;5.43;;;;;;;;;;5075734;28;20724;-77
2021/03/22 05:55:54;;;;;;;18.17;4.90;;;;;;;;;;5054246;28;20201;-77
2021/03/22 05:58:32;;;;;;;18.40;5.07;;;;;;;;;;5062816;28;20204;-79
2021/03/22 06:01:04;;;;;;;14.10;4.97;;;;;;;;;;5079072;28;20188;-77
2021/03/22 06:03:37;;;;;;;19.80;5.30;;;;;;;;;;5074168;28;20587;-77
2021/03/22 06:06:03;;;;;;;19.20;5.53;;;;;;;;;;5073941;28;20181;-77
2021/03/22 06:08:47;;;;;;;18.17;5.90;;;;;;;;;;5074997;28;20213;-77
2021/03/22 06:11:19;;;;;;;19.00;5.53;;;;;;;;;;5053858;28;20598;-77
2021/03/22 06:13:45;;;;;;;16.30;5.23;;;;;;;;;;5069701;28;20191;-77
2021/03/22 06:16:19;;;;;;;16.60;4.67;;;;;;;;;;5053891;28;20655;-76
2021/03/22 06:18:59;;;;;;;20.43;5.73;;;;;;;;;;5053812;28;20202;-77
2021/03/22 06:21:26;;;;;;;19.50;5.80;;;;;;;;;;5054005;28;20182;-77
2021/03/22 06:23:52;;;;;;;13.93;4.80;;;;;;;;;;5050876;28;20210;-77
2021/03/22 06:26:18;;;;;;;20.90;5.17;;;;;;;;;;5073654;28;20188;-77
2021/03/22 06:28:44;;;;;;;18.97;6.17;;;;;;;;;;5073733;28;20709;-77
2021/03/22 06:31:14;;;;;;;16.63;5.30;;;;;;;;;;5057114;28;20180;-77
2021/03/22 06:33:41;;;;;;;15.67;5.17;;;;;;;;;;5057340;28;20913;-77
2021/03/22 06:36:07;;;;;;;19.83;5.43;;;;;;;;;;5065009;28;20180;-79
2021/03/22 06:38:33;;;;;;;19.13;5.10;;;;;;;;;;5055394;28;20679;-77
2021/03/22 06:41:00;;;;;;;13.73;5.20;;;;;;;;;;5054363;28;20213;-77
2021/03/22 06:43:27;;;;;;;15.70;5.47;;;;;;;;;;5045067;28;20232;-77
2021/03/22 06:45:54;;;;;;;16.87;5.60;;;;;;;;;;5052794;28;20189;-76
2021/03/22 06:48:27;;;;;;;17.40;5.30;;;;;;;;;;5062423;28;20196;-77
2021/03/22 06:50:54;;;;;;;13.20;4.63;;;;;;;;;;5060446;28;20182;-77
2021/03/22 06:53:33;;;;;;;16.13;5.33;;;;;;;;;;5051702;28;20238;-79
2021/03/22 06:56:11;;;;;;;15.40;4.90;;;;;;;;;;5071854;28;20169;-79
2021/03/22 06:58:37;;;;;;;18.13;4.97;;;;;;;;;;5053867;28;20209;-77
2021/03/22 07:01:13;;;;;;;11.70;4.50;;;;;;;;;;5049334;28;20231;-79
2021/03/22 07:03:39;;;;;;;11.63;4.40;;;;;;;;;;5054261;28;20256;-79
2021/03/22 07:06:14;;;;;;;11.70;4.20;;;;;;;;;;5065568;28;20731;-79
2021/03/22 07:08:41;;;;;;;13.83;5.13;;;;;;;;;;5054202;28;20218;-78
2021/03/22 07:11:08;;;;;;;12.47;4.50;;;;;;;;;;5060058;28;20177;-80
2021/03/22 07:13:35;;;;;;;14.53;4.73;;;;;;;;;;5077009;28;20189;-76
2021/03/22 07:16:20;;;;;;;11.23;3.93;;;;;;;;;;5050924;28;20632;-78
2021/03/22 07:19:06;;;;;;;12.00;4.00;;;;;;;;;;5053193;28;20549;-78
2021/03/22 07:21:32;;;;;;;12.27;3.60;;;;;;;;;;5053063;28;20178;-78
2021/03/22 07:24:03;;;;;;;16.73;4.17;;;;;;;;;;5036697;28;20217;-78
2021/03/22 07:26:35;;;;;;;9.90;3.70;;;;;;;;;;5068548;28;20181;-78
2021/03/22 07:29:04;;;;;;;10.33;3.60;;;;;;;;;;5073344;28;20173;-78
2021/03/22 07:31:30;;;;;;;11.17;3.80;;;;;;;;;;5074361;28;20165;-78
2021/03/22 07:34:11;;;;;;;11.13;4.07;;;;;;;;;;5078325;28;20211;-79
2021/03/22 07:36:43;;;;;;;10.40;3.93;;;;;;;;;;5093018;28;20690;-78
2021/03/22 07:39:09;;;;;;;14.03;3.57;;;;;;;;;;5076152;28;20181;-79
2021/03/22 07:41:34;;;;;;;9.67;3.30;;;;;;;;;;5092464;28;20330;-78
2021/03/22 07:44:05;;;;;;;11.23;3.37;;;;;;;;;;5074357;28;20197;-78
2021/03/22 07:46:51;;;;;;;7.67;3.20;;;;;;;;;;5072294;28;20250;-78
2021/03/22 07:49:20;;;;;;;8.07;3.40;;;;;;;;;;5072510;28;20192;-79
2021/03/22 07:51:46;;;;;;;5.80;2.93;;;;;;;;;;5073021;28;20188;-79
2021/03/22 07:54:31;;;;;;;9.40;3.33;;;;;;;;;;5075378;28;20184;-79
2021/03/22 07:57:01;;;;;;;11.67;3.70;;;;;;;;;;5070538;28;20677;-78
2021/03/22 07:59:42;;;;;;;10.23;3.60;;;;;;;;;;5051891;28;20174;-78
2021/03/22 08:02:17;;;;;;;8.77;3.53;;;;;;;;;;5060718;28;20178;-78
2021/03/22 08:04:43;;;;;;;13.10;4.33;;;;;;;;;;5072517;28;20204;-79
2021/03/22 08:07:36;;;;;;;9.33;3.67;;;;;;;;;;5056317;28;20585;-78
2021/03/22 08:10:20;;;;;;;9.80;3.80;;;;;;;;;;5028767;28;20182;-78
2021/03/22 08:12:52;;;;;;;9.97;3.50;;;;;;;;;;5065877;28;20260;-78
2021/03/22 08:15:21;;;;;;;9.07;3.80;;;;;;;;;;5072592;28;20268;-80
2021/03/22 08:18:07;;;;;;;8.33;3.80;;;;;;;;;;5059196;28;20220;-77
2021/03/22 08:20:35;;;;;;;8.23;3.10;;;;;;;;;;5080548;28;20216;-76
2021/03/22 08:23:19;;;;;;;6.13;3.40;;;;;;;;;;5073570;28;20169;-77
2021/03/22 08:25:49;;;;;;;6.87;3.37;;;;;;;;;;5071353;28;20182;-79
2021/03/22 08:28:24;;;;;;;7.67;3.50;;;;;;;;;;5052625;28;20339;-77
2021/03/22 08:31:00;;;;;;;7.77;3.53;;;;;;;;;;5065987;28;20180;-76
2021/03/22 08:33:42;;;;;;;8.40;3.20;;;;;;;;;;5064730;28;20561;-78
2021/03/22 08:36:23;;;;;;;6.87;3.30;;;;;;;;;;5055838;28;20189;-77
2021/03/22 08:39:01;;;;;;;8.73;3.50;;;;;;;;;;5060734;28;20225;-77
2021/03/22 08:42:04;;;;;;;7.13;3.13;;;;;;;;;;5037799;28;20189;-78
2021/03/22 08:44:44;;;;;;;7.73;3.03;;;;;;;;;;4996129;28;20215;-78
2021/03/22 08:47:28;;;;;;;10.63;3.33;;;;;;;;;;5061458;28;20228;-79
2021/03/22 08:49:56;;;;;;;7.20;3.03;;;;;;;;;;5061584;28;20386;-77
2021/03/22 08:52:25;;;;;;;6.33;2.87;;;;;;;;;;5054159;28;20173;-76
2021/03/22 08:54:59;;;;;;;4.27;2.50;;;;;;;;;;5071004;28;20225;-78
2021/03/22 08:57:25;;;;;;;7.53;2.73;;;;;;;;;;5055731;28;20205;-78
2021/03/22 09:00:08;;;;;;;6.27;2.60;;;;;;;;;;5047084;28;20639;-77
2021/03/22 09:02:34;;;;;;;5.17;2.87;;;;;;;;;;5036058;28;20249;-79
2021/03/22 09:05:00;;;;;;;4.67;2.40;;;;;;;;;;5061092;28;20666;-76
2021/03/22 09:07:27;;;;;;;4.43;2.60;;;;;;;;;;5049977;28;20213;-76
2021/03/22 09:09:53;;;;;;;7.87;2.90;;;;;;;;;;5050820;28;20258;-78
2021/03/22 09:12:38;;;;;;;4.50;2.60;;;;;;;;;;5051085;28;20292;-76
2021/03/22 09:15:33;;;;;;;5.43;2.30;;;;;;;;;;5034359;28;20247;-77
2021/03/22 09:17:59;;;;;;;7.57;1.97;;;;;;;;;;5038215;28;20297;-78
2021/03/22 09:20:29;;;;;;;4.53;2.20;;;;;;;;;;5051255;28;20217;-78
2021/03/22 09:23:02;;;;;;;5.43;2.93;;;;;;;;;;5068089;28;20331;-77
2021/03/22 09:25:46;;;;;;;7.57;3.13;;;;;;;;;;5070601;28;20181;-77
2021/03/22 09:28:25;;;;;;;5.83;2.90;;;;;;;;;;5071924;28;20201;-77
2021/03/22 09:31:09;;;;;;;5.00;2.80;;;;;;;;;;5072010;28;20176;-77
2021/03/22 09:33:54;;;;;;;6.70;2.63;;;;;;;;;;5074195;28;20555;-78
2021/03/22 09:36:30;;;;;;;5.10;2.13;;;;;;;;;;5075691;28;20180;-78
2021/03/22 09:38:56;;;;;;;8.93;2.43;;;;;;;;;;5074736;28;20208;-78
2021/03/22 09:41:41;;;;;;;4.70;2.00;;;;;;;;;;5058314;28;20180;-78
2021/03/22 09:44:08;;;;;;;7.60;2.20;;;;;;;;;;5076312;28;20201;-78
2021/03/22 09:46:34;;;;;;;4.20;2.00;;;;;;;;;;5074765;28;20174;-78
2021/03/22 09:49:14;;;;;;;4.17;1.70;;;;;;;;;;5057775;28;20193;-78
2021/03/22 09:51:44;;;;;;;3.40;1.90;;;;;;;;;;5043566;28;20212;-77
2021/03/22 09:54:18;;;;;;;3.87;1.60;;;;;;;;;;5054264;28;20178;-77
2021/03/22 09:57:03;;;;;;;2.93;1.40;;;;;;;;;;5068999;28;20201;-78
2021/03/22 09:59:30;;;;;;;4.50;1.70;;;;;;;;;;5076528;28;20184;-77
2021/03/22 10:01:56;;;;;;;3.13;1.63;;;;;;;;;;5057945;28;20189;-76
2021/03/22 10:04:35;;;;;;;2.43;1.30;;;;;;;;;;5065133;28;20198;-77
2021/03/22 10:07:04;;;;;;;5.00;1.60;;;;;;;;;;5051995;28;20283;-76
2021/03/22 10:09:46;;;;;;;3.43;1.40;;;;;;;;;;5064574;28;20215;-76
2021/03/22 10:12:17;;;;;;;3.87;1.60;;;;;;;;;;5073638;28;20289;-76
2021/03/22 10:14:44;;;;;;;3.27;1.50;;;;;;;;;;5056992;28;20545;-77
2021/03/22 10:17:22;;;;;;;3.53;1.53;;;;;;;;;;5073365;28;20248;-76
2021/03/22 10:19:47;;;;;;;5.17;1.57;;;;;;;;;;5073634;28;20708;-77
2021/03/22 10:22:15;;;;;;;2.87;1.50;;;;;;;;;;5073425;28;20186;-76
2021/03/22 10:24:50;;;;;;;4.60;1.70;;;;;;;;;;5056365;28;20205;-76
2021/03/22 10:27:21;;;;;;;3.03;1.23;;;;;;;;;;5073085;28;20211;-78
2021/03/22 10:29:47;;;;;;;3.33;2.27;;;;;;;;;;5056843;28;20182;-76
2021/03/22 10:32:19;;;;;;;4.73;2.87;;;;;;;;;;5053535;28;20272;-76
2021/03/22 10:34:55;;;;;;;6.57;2.87;;;;;;;;;;5057771;28;20673;-76
2021/03/22 10:37:21;;;;;;;6.30;3.00;;;;;;;;;;5053496;28;20194;-77
2021/03/22 10:39:50;;;;;;;6.10;3.07;;;;;;;;;;5066571;28;20174;-77
2021/03/22 10:42:33;;;;;;;6.77;3.10;;;;;;;;;;5053313;28;20233;-76
2021/03/22 10:44:59;;;;;;;5.33;3.03;;;;;;;;;;5057963;28;20193;-76
2021/03/22 10:47:29;;;;;;;5.60;3.50;;;;;;;;;;5073268;28;20205;-76
2021/03/22 10:49:56;;;;;;;4.13;2.83;;;;;;;;;;5056698;28;20178;-78
2021/03/22 10:52:25;;;;;;;6.53;3.00;;;;;;;;;;5053020;28;20663;-76
2021/03/22 10:54:52;;;;;;;6.57;3.03;;;;;;;;;;5053014;28;20190;-76
2021/03/22 10:57:28;;;;;;;4.93;2.87;;;;;;;;;;5052983;28;20229;-76
2021/03/22 10:59:55;;;;;;;6.30;2.80;;;;;;;;;;5053157;28;20190;-76
2021/03/22 11:02:27;;;;;;;4.37;2.70;;;;;;;;;;5052913;28;20190;-78
2021/03/22 11:04:53;;;;;;;3.83;2.40;;;;;;;;;;5052971;28;20687;-77
2021/03/22 11:07:20;;;;;;;5.17;2.77;;;;;;;;;;5052498;28;20216;-77
2021/03/22 11:09:59;;;;;;;3.60;2.53;;;;;;;;;;5053100;28;20182;-77
2021/03/22 11:12:29;;;;;;;6.07;2.70;;;;;;;;;;5052784;28;20236;-77
2021/03/22 11:14:59;;;;;;;4.60;2.70;;;;;;;;;;5052725;28;20500;-77
2021/03/22 11:17:25;;;;;;;4.87;2.43;;;;;;;;;;5052663;28;20238;-77
2021/03/22 11:19:51;;;;;;;3.93;2.37;;;;;;;;;;5053109;28;20668;-77
2021/03/22 11:22:31;;;;;;;6.60;2.57;;;;;;;;;;5052953;28;20188;-77
2021/03/22 11:24:58;;;;;;;4.40;2.50;;;;;;;;;;5052853;28;20257;-77
2021/03/22 11:27:25;;;;;;;6.30;2.33;;;;;;;;;;5052724;28;20657;-77
2021/03/22 11:29:56;;;;;;;3.90;2.47;;;;;;;;;;5052982;28;20543;-77
2021/03/22 11:32:24;;;;;;;6.17;2.27;;;;;;;;;;5052578;28;20551;-77
2021/03/22 11:34:50;;;;;;;5.07;2.27;;;;;;;;;;5052657;28;20232;-77
2021/03/22 11:37:20;;;;;;;4.20;2.63;;;;;;;;;;5053619;28;20693;-75
2021/03/22 11:39:47;;;;;;;5.40;2.77;;;;;;;;;;5065136;28;20693;-73
2021/03/22 11:42:22;;;;;;;5.53;2.50;;;;;;;;;;5059713;28;20229;-78
2021/03/22 11:44:48;;;;;;;4.43;2.53;;;;;;;;;;5059750;28;20212;-77
2021/03/22 11:47:23;;;;;;;7.27;2.40;;;;;;;;;;5052622;28;20232;-81
2021/03/22 11:49:49;;;;;;;6.00;2.50;;;;;;;;;;5066941;28;20186;-78
2021/03/22 11:52:18;;;;;;;3.47;2.20;;;;;;;;;;5063557;28;20219;-78
2021/03/22 11:54:48;;;;;;;5.77;2.60;;;;;;;;;;5065298;28;20176;-79
2021/03/22 11:57:17;;;;;;;6.30;2.63;;;;;;;;;;5058050;28;20635;-78
2021/03/22 11:59:53;;;;;;;9.23;2.80;;;;;;;;;;5035311;28;20217;-77
2021/03/22 12:02:32;;;;;;;4.00;2.50;;;;;;;;;;5035280;28;20277;-77
2021/03/22 12:05:00;;;;;;;6.03;2.20;;;;;;;;;;5048307;28;20241;-79
2021/03/22 12:07:33;;;;;;;5.70;1.90;;;;;;;;;;5069225;28;20275;-78
2021/03/22 12:09:59;;;;;;;6.10;2.00;;;;;;;;;;5055240;28;20228;-77
2021/03/22 12:12:25;;;;;;;7.23;2.63;;;;;;;;;;5051832;28;20218;-78
2021/03/22 12:14:51;;;;;;;4.10;2.33;;;;;;;;;;5035753;28;20260;-79
2021/03/22 12:17:44;;;;;;;5.80;2.70;;;;;;;;;;5034863;28;20727;-77
2021/03/22 12:20:14;;;;;;;3.70;2.33;;;;;;;;;;5050309;28;20194;-79
2021/03/22 12:22:40;;;;;;;7.13;2.77;;;;;;;;;;5051483;28;20647;-78
2021/03/22 12:25:06;;;;;;;5.83;2.80;;;;;;;;;;5034648;28;20215;-77
2021/03/22 12:27:32;;;;;;;4.20;2.20;;;;;;;;;;5064343;28;20672;-78
2021/03/22 12:29:58;;;;;;;3.97;2.50;;;;;;;;;;5050248;28;20274;-79
2021/03/22 12:32:24;;;;;;;3.50;2.20;;;;;;;;;;5042897;28;20536;-78
2021/03/22 12:34:50;;;;;;;4.03;2.17;;;;;;;;;;5049489;28;20351;-81
2021/03/22 12:37:30;;;;;;;6.93;3.00;;;;;;;;;;5052239;28;20205;-78
2021/03/22 12:39:56;;;;;;;6.37;2.63;;;;;;;;;;5064510;28;20539;-79
2021/03/22 12:42:22;;;;;;;3.10;1.80;;;;;;;;;;5066711;28;20190;-78
2021/03/22 12:44:48;;;;;;;3.90;2.13;;;;;;;;;;5065720;28;20223;-78
2021/03/22 12:47:21;;;;;;;3.93;1.97;;;;;;;;;;5056092;28;20284;-80
2021/03/22 12:49:47;;;;;;;2.70;1.80;;;;;;;;;;5053456;28;20280;-80
2021/03/22 12:52:13;;;;;;;3.10;2.30;;;;;;;;;;5069948;28;20181;-78
2021/03/22 12:54:39;;;;;;;4.50;2.00;;;;;;;;;;5065748;28;20180;-79
2021/03/22 12:57:05;;;;;;;6.83;2.00;;;;;;;;;;5051155;28;20261;-79
2021/03/22 12:59:35;;;;;;;4.33;1.93;;;;;;;;;;5075707;28;20263;-80
2021/03/22 13:02:02;;;;;;;3.73;1.50;;;;;;;;;;5073164;28;20214;-77
2021/03/22 13:04:28;;;;;;;3.90;1.70;;;;;;;;;;5073700;28;20210;-78
2021/03/22 13:06:54;;;;;;;3.10;1.73;;;;;;;;;;5063719;28;20182;-77
2021/03/22 13:09:20;;;;;;;4.07;1.73;;;;;;;;;;5046442;28;20191;-77
2021/03/22 13:11:46;;;;;;;4.37;1.73;;;;;;;;;;5057970;28;20194;-76
2021/03/22 13:14:16;;;;;;;2.97;1.60;;;;;;;;;;5072545;28;20211;-77
2021/03/22 13:16:43;;;;;;;4.23;2.00;;;;;;;;;;5054591;28;20204;-78
2021/03/22 13:19:08;;;;;;;4.47;1.63;;;;;;;;;;5071301;28;20225;-79
2021/03/22 13:21:34;;;;;;;4.50;1.80;;;;;;;;;;5054169;28;20252;-78
2021/03/22 13:24:01;;;;;;;4.33;1.60;;;;;;;;;;5054529;28;20211;-77
2021/03/22 13:26:27;;;;;;;3.60;1.47;;;;;;;;;;5051629;28;20173;-77
2021/03/22 13:28:55;;;;;;;4.33;1.70;;;;;;;;;;5059712;28;20265;-77
2021/03/22 13:31:21;;;;;;;2.87;1.50;;;;;;;;;;5060971;28;20174;-77
2021/03/22 13:33:48;;;;;;;2.20;1.70;;;;;;;;;;5063117;28;20250;-77
2021/03/22 13:36:14;;;;;;;4.87;1.53;;;;;;;;;;5061329;28;20265;-76
2021/03/22 13:38:40;;;;;;;3.93;1.70;;;;;;;;;;5059370;28;20627;-76
2021/03/22 13:41:13;;;;;;;2.97;1.60;;;;;;;;;;5044955;28;20178;-77
2021/03/22 13:43:39;;;;;;;5.03;1.37;;;;;;;;;;5055717;28;20328;-76
2021/03/22 13:46:05;;;;;;;3.13;1.40;;;;;;;;;;5051853;28;20253;-78
2021/03/22 13:48:31;;;;;;;3.77;1.60;;;;;;;;;;5034137;28;20202;-77
2021/03/22 13:50:58;;;;;;;4.17;1.30;;;;;;;;;;5033819;28;20175;-76
2021/03/22 13:53:25;;;;;;;2.17;1.23;;;;;;;;;;5050372;28;20181;-76
2021/03/22 13:55:51;;;;;;;4.57;1.40;;;;;;;;;;5050028;28;20210;-77
2021/03/22 13:58:18;;;;;;;5.03;1.53;;;;;;;;;;5047078;28;20625;-77
2021/03/22 14:00:44;;;;;;;3.77;1.23;;;;;;;;;;5070319;28;20584;-78
2021/03/22 14:03:10;;;;;;;2.37;1.50;;;;;;;;;;5053716;28;20186;-78
2021/03/22 14:05:36;;;;;;;3.97;1.43;;;;;;;;;;5070212;28;20205;-77
2021/03/22 14:08:02;;;;;;;3.07;1.00;;;;;;;;;;5068653;28;20241;-78
2021/03/22 14:10:28;;;;;;;3.37;1.30;;;;;;;;;;5053451;28;20559;-77
2021/03/22 14:12:54;;;;;;;2.00;1.10;;;;;;;;;;5070978;28;20261;-77
2021/03/22 14:15:22;;;;;;;3.13;1.30;;;;;;;;;;5069661;28;20181;-77
2021/03/22 14:17:48;;;;;;;3.83;1.40;;;;;;;;;;5069521;28;20573;-77
2021/03/22 14:20:14;;;;;;;3.53;1.37;;;;;;;;;;5056251;28;20238;-77
2021/03/22 14:22:40;;;;;;;3.37;1.23;;;;;;;;;;5067969;28;20185;-77
2021/03/22 14:25:07;;;;;;;3.63;1.43;;;;;;;;;;5055075;28;20197;-77
2021/03/22 14:27:33;;;;;;;2.33;1.60;;;;;;;;;;5053204;28;20573;-77
2021/03/22 14:29:59;;;;;;;2.80;1.30;;;;;;;;;;5057951;28;20174;-77
2021/03/22 14:32:25;;;;;;;2.03;1.20;;;;;;;;;;5070609;28;20315;-77
2021/03/22 14:34:51;;;;;;;1.70;1.10;;;;;;;;;;5073309;28;20181;-77
2021/03/22 14:37:17;;;;;;;3.47;1.47;;;;;;;;;;5065543;28;20209;-77
2021/03/22 14:39:43;;;;;;;2.03;1.20;;;;;;;;;;5072033;28;20267;-77
2021/03/22 14:42:12;;;;;;;2.80;1.50;;;;;;;;;;5072830;28;20201;-77
2021/03/22 14:44:38;;;;;;;4.83;1.37;;;;;;;;;;5072762;28;20205;-77
2021/03/22 14:47:06;;;;;;;3.80;2.13;;;;;;;;;;5072752;28;20734;-77
2021/03/22 14:49:32;;;;;;;3.67;1.37;;;;;;;;;;5073256;28;20175;-77